Abbeville, Georgia
Current Conditions -  °F | °C
As of 12:55 PM on Monday 24 Nov 2014 (Local Time) from KEZM Reporting Station
Overcast Overcast  
Wind Chill: 73°   Ceiling: 1400
Heat Index: 73°   Visibility: 10mi
Dew Point: 71°   Wind: 5mph
Humidity: 93%   Direction: 240°WSW
Pressure: 29.86"   Gusts: NA
Location:  31.99°N, 83.31°W
Report Text: KEZM 241755Z AUTO 24004KT 10SM BKN014 OVC085 23/22 A2986 RMK AO2 T02300219 10230 20196
Loading
Personal Weather Stations






























Interactive Weather Map New forecast layout! Learn more

10-Day Weather Forecast

Advertisements
Track Severe Weather on mobile